createdAt,value
2018-01-26T00:01:48.282Z,7.00
2018-01-26T00:04:16.535Z,7.00
2018-01-26T00:06:45.557Z,7.00
2018-01-26T00:09:13.835Z,7.00
2018-01-26T00:11:42.093Z,6.90
2018-01-26T00:14:11.129Z,7.00
2018-01-26T00:16:39.357Z,7.00
2018-01-26T00:19:08.997Z,7.00
2018-01-26T00:21:37.238Z,7.00
2018-01-26T00:24:06.267Z,7.00
2018-01-26T00:26:34.529Z,6.90
2018-01-26T00:29:02.781Z,7.10
2018-01-26T00:31:31.264Z,7.20
2018-01-26T00:34:01.033Z,7.10
2018-01-26T00:36:29.276Z,7.10
2018-01-26T00:38:57.833Z,7.30
2018-01-26T00:41:26.077Z,7.20
2018-01-26T00:43:54.338Z,7.10
2018-01-26T00:46:22.581Z,7.20
2018-01-26T00:48:50.886Z,7.20
2018-01-26T00:51:19.135Z,7.20
2018-01-26T00:53:48.132Z,7.20
2018-01-26T00:56:17.983Z,7.20
2018-01-26T00:58:46.245Z,7.10
2018-01-26T01:01:14.477Z,7.10
2018-01-26T01:03:42.724Z,7.10
2018-01-26T01:06:10.974Z,7.10
2018-01-26T01:08:39.256Z,7.10
2018-01-26T01:11:07.490Z,7.30
2018-01-26T01:13:36.541Z,7.30
2018-01-26T01:16:04.752Z,7.30
2018-01-26T01:18:33.794Z,7.30
2018-01-26T01:21:02.041Z,7.20
2018-01-26T01:23:31.060Z,7.20
2018-01-26T01:26:00.055Z,7.20
2018-01-26T01:28:28.302Z,7.20
2018-01-26T01:30:57.354Z,7.20
2018-01-26T01:33:25.561Z,7.10
2018-01-26T01:35:53.833Z,7.20
2018-01-26T01:38:22.085Z,7.10
2018-01-26T01:40:50.363Z,7.10
2018-01-26T01:43:18.604Z,7.20
2018-01-26T01:45:47.588Z,7.20
2018-01-26T01:48:16.609Z,7.10
2018-01-26T01:50:44.891Z,7.10
2018-01-26T01:53:13.176Z,7.20
2018-01-26T01:55:41.413Z,7.20
2018-01-26T01:58:10.440Z,7.10
2018-01-26T02:00:38.669Z,7.10
2018-01-26T02:03:06.924Z,7.10
2018-01-26T02:05:35.235Z,7.20
2018-01-26T02:08:04.477Z,7.20
2018-01-26T02:10:32.733Z,7.20
2018-01-26T02:13:01.033Z,7.10
2018-01-26T02:15:29.269Z,7.00
2018-01-26T02:17:58.267Z,7.10
2018-01-26T02:20:27.293Z,7.10
2018-01-26T02:22:55.533Z,7.10
2018-01-26T02:25:24.565Z,7.10
2018-01-26T02:27:52.833Z,7.10
2018-01-26T02:30:21.111Z,7.00
2018-01-26T02:32:49.461Z,7.00
2018-01-26T02:35:18.473Z,6.90
2018-01-26T02:37:46.755Z,6.90
2018-01-26T02:40:15.799Z,6.90
2018-01-26T02:42:44.029Z,6.80
2018-01-26T02:45:12.306Z,6.90
2018-01-26T02:47:40.546Z,7.00
2018-01-26T02:50:09.108Z,7.10
2018-01-26T02:52:37.374Z,7.20
2018-01-26T02:55:05.630Z,7.30
2018-01-26T02:57:33.872Z,7.20
2018-01-26T03:00:02.113Z,7.20
2018-01-26T03:02:30.385Z,7.30
2018-01-26T03:04:58.632Z,7.20
2018-01-26T03:07:26.878Z,7.20
2018-01-26T03:09:55.890Z,7.20
2018-01-26T03:12:24.910Z,7.10
2018-01-26T03:14:53.168Z,7.10
2018-01-26T03:17:21.449Z,7.20
2018-01-26T03:19:49.714Z,7.30
2018-01-26T03:22:18.749Z,7.00
2018-01-26T03:24:47.018Z,7.00
2018-01-26T03:27:15.252Z,6.90
2018-01-26T03:29:44.256Z,7.00
2018-01-26T03:32:12.542Z,7.00
2018-01-26T03:34:40.769Z,7.00
2018-01-26T03:37:09.029Z,6.90
2018-01-26T03:39:37.274Z,6.80
2018-01-26T03:42:06.268Z,6.80
2018-01-26T03:44:34.696Z,6.70
2018-01-26T03:47:02.937Z,6.70
2018-01-26T03:49:31.281Z,6.70
2018-01-26T03:51:59.505Z,6.90
2018-01-26T03:54:27.754Z,7.00
2018-01-26T03:56:56.759Z,7.20
2018-01-26T03:59:25.019Z,7.10
2018-01-26T04:01:54.089Z,7.20
2018-01-26T04:04:22.349Z,7.20
2018-01-26T04:06:50.590Z,7.20
2018-01-26T04:09:18.852Z,7.30
2018-01-26T04:11:47.849Z,7.20
2018-01-26T04:14:16.862Z,7.10
2018-01-26T04:16:45.108Z,7.10
2018-01-26T04:19:14.118Z,7.00
2018-01-26T04:21:42.382Z,7.00
2018-01-26T04:24:10.616Z,7.10
2018-01-26T04:26:38.879Z,7.10
2018-01-26T04:29:07.141Z,6.90
2018-01-26T04:31:35.730Z,6.90
2018-01-26T04:34:04.412Z,6.80
2018-01-26T04:36:32.658Z,6.90
2018-01-26T04:39:01.737Z,7.00
2018-01-26T04:41:30.066Z,7.00
2018-01-26T04:43:58.314Z,7.10
2018-01-26T04:46:27.321Z,7.20
2018-01-26T04:48:55.583Z,7.20
2018-01-26T04:51:24.763Z,7.20
2018-01-26T04:53:52.980Z,7.20
2018-01-26T04:56:21.985Z,7.20
2018-01-26T04:58:50.247Z,7.20
2018-01-26T05:01:18.517Z,7.20
2018-01-26T05:03:47.514Z,7.20
2018-01-26T05:06:15.761Z,7.20
2018-01-26T05:08:44.001Z,7.20
2018-01-26T05:11:12.253Z,7.20
2018-01-26T05:13:40.504Z,7.20
2018-01-26T05:16:08.755Z,7.30
2018-01-26T05:18:37.784Z,7.20
2018-01-26T05:21:06.835Z,7.30
2018-01-26T05:23:35.113Z,7.30
2018-01-26T05:26:03.346Z,7.30
2018-01-26T05:28:32.364Z,7.20
2018-01-26T05:31:00.579Z,7.20
2018-01-26T05:33:29.634Z,7.20
2018-01-26T05:35:57.872Z,7.20
2018-01-26T05:38:26.931Z,7.30
2018-01-26T05:40:55.192Z,7.30
2018-01-26T05:43:23.450Z,7.40
2018-01-26T05:45:51.705Z,7.40
2018-01-26T05:48:21.665Z,7.30
2018-01-26T05:50:49.930Z,7.40
2018-01-26T05:53:18.206Z,7.40
2018-01-26T05:55:46.482Z,7.40
2018-01-26T05:58:14.734Z,7.40
2018-01-26T06:00:43.413Z,7.30
2018-01-26T06:03:12.434Z,7.30
2018-01-26T06:05:40.719Z,7.30
2018-01-26T06:08:08.963Z,7.30
2018-01-26T06:10:37.981Z,7.40
2018-01-26T06:13:06.234Z,7.40
2018-01-26T06:15:35.238Z,7.40
2018-01-26T06:18:04.260Z,7.40
2018-01-26T06:20:32.540Z,7.30
2018-01-26T06:23:00.816Z,7.40
2018-01-26T06:25:29.054Z,7.40
2018-01-26T06:27:58.825Z,7.40
2018-01-26T06:30:27.046Z,7.40
2018-01-26T06:32:56.054Z,7.40
2018-01-26T06:35:24.319Z,7.40
2018-01-26T06:37:53.326Z,7.50
2018-01-26T06:40:21.590Z,7.50
2018-01-26T06:42:50.621Z,7.50
2018-01-26T06:45:18.875Z,7.50
2018-01-26T06:47:47.142Z,7.50
2018-01-26T06:50:16.240Z,7.50
2018-01-26T06:52:44.487Z,7.40
2018-01-26T06:55:12.843Z,7.40
2018-01-26T06:57:41.119Z,7.40
2018-01-26T07:00:09.414Z,7.40
2018-01-26T07:02:37.705Z,7.30
2018-01-26T07:05:05.973Z,7.30
2018-01-26T07:07:34.188Z,7.30
2018-01-26T07:10:03.223Z,7.40
2018-01-26T07:12:31.437Z,7.30
2018-01-26T07:15:00.457Z,7.30
2018-01-26T07:17:28.708Z,7.30
2018-01-26T07:19:57.381Z,7.30
2018-01-26T07:22:25.635Z,7.30
2018-01-26T07:24:53.913Z,7.20
2018-01-26T07:27:22.141Z,7.10
2018-01-26T07:29:51.795Z,7.20
2018-01-26T07:32:20.052Z,7.10
2018-01-26T07:34:48.299Z,7.10
2018-01-26T07:37:16.551Z,7.10
2018-01-26T07:39:46.337Z,7.10
2018-01-26T07:42:14.617Z,7.10
2018-01-26T07:44:43.134Z,7.20
2018-01-26T07:47:11.397Z,7.10
2018-01-26T07:49:39.644Z,7.10
2018-01-26T07:52:07.922Z,7.20
2018-01-26T07:54:36.209Z,7.30
2018-01-26T07:57:04.474Z,7.30
2018-01-26T07:59:32.762Z,7.40
2018-01-26T08:02:01.011Z,7.40
2018-01-26T08:04:30.022Z,7.40
2018-01-26T08:06:58.298Z,7.40
2018-01-26T08:09:26.588Z,7.40
2018-01-26T08:11:54.828Z,7.40
2018-01-26T08:14:23.848Z,7.30
2018-01-26T08:16:52.125Z,7.30
2018-01-26T08:19:20.377Z,7.40
2018-01-26T08:21:48.662Z,7.20
2018-01-26T08:24:17.654Z,7.20
2018-01-26T08:26:45.921Z,7.20
2018-01-26T08:29:14.182Z,7.20
2018-01-26T08:31:42.425Z,7.20
2018-01-26T08:34:10.690Z,7.30
2018-01-26T08:36:38.929Z,7.20
2018-01-26T08:39:07.994Z,7.30
2018-01-26T08:41:37.859Z,7.30
2018-01-26T08:44:06.534Z,7.30
2018-01-26T08:46:35.541Z,7.40
2018-01-26T08:49:03.804Z,7.40
2018-01-26T08:51:32.833Z,7.50
2018-01-26T08:54:01.139Z,7.50
2018-01-26T08:56:29.364Z,7.50
2018-01-26T08:58:57.606Z,7.50
2018-01-26T09:01:25.871Z,7.60
2018-01-26T09:03:55.645Z,7.60
2018-01-26T09:06:23.889Z,7.60
2018-01-26T09:08:52.899Z,7.60
2018-01-26T09:11:21.194Z,7.60
2018-01-26T09:13:49.462Z,7.60
2018-01-26T09:16:17.728Z,7.60
2018-01-26T09:18:46.807Z,7.60
2018-01-26T09:21:15.047Z,7.60
2018-01-26T09:23:43.285Z,7.70
2018-01-26T09:26:11.569Z,7.80
2018-01-26T09:28:39.824Z,7.90
2018-01-26T09:31:08.851Z,8.10
2018-01-26T09:33:37.104Z,8.10
2018-01-26T09:36:05.390Z,8.30
2018-01-26T09:38:33.633Z,8.30
2018-01-26T09:41:01.878Z,8.40
2018-01-26T09:43:30.153Z,8.40
2018-01-26T09:45:58.641Z,8.30
2018-01-26T09:48:27.773Z,8.30
2018-01-26T09:50:56.386Z,8.40
2018-01-26T09:53:24.650Z,8.50
2018-01-26T09:55:53.653Z,8.50
2018-01-26T09:58:21.936Z,8.50
2018-01-26T10:00:50.967Z,8.70
2018-01-26T10:03:19.209Z,8.70
2018-01-26T10:05:47.471Z,8.80
2018-01-26T10:08:16.524Z,9.00
2018-01-26T10:10:44.782Z,9.00
2018-01-26T10:13:13.053Z,9.00
2018-01-26T10:15:41.366Z,9.10
2018-01-26T10:18:09.620Z,9.20
2018-01-26T10:20:37.864Z,9.30
2018-01-26T10:23:06.891Z,9.20
2018-01-26T10:25:35.146Z,9.20
2018-01-26T10:28:03.388Z,9.30
2018-01-26T10:30:32.532Z,9.20
2018-01-26T10:33:00.783Z,9.20
2018-01-26T10:35:29.044Z,9.30
2018-01-26T10:37:57.303Z,9.30
2018-01-26T10:40:25.587Z,9.20
2018-01-26T10:42:53.821Z,9.10
2018-01-26T10:45:22.115Z,9.10
2018-01-26T10:47:51.219Z,9.20
2018-01-26T10:50:19.496Z,9.20
2018-01-26T10:52:47.717Z,9.20
2018-01-26T10:55:16.709Z,9.30
2018-01-26T10:57:45.749Z,9.40
2018-01-26T11:00:14.042Z,9.40
2018-01-26T11:02:42.315Z,9.40
2018-01-26T11:05:10.570Z,9.50
2018-01-26T11:07:38.856Z,9.50
2018-01-26T11:10:07.154Z,9.60
2018-01-26T11:12:35.443Z,9.50
2018-01-26T11:15:03.876Z,9.50
2018-01-26T11:17:32.854Z,9.70
2018-01-26T11:20:01.915Z,9.70
2018-01-26T11:22:30.206Z,9.70
2018-01-26T11:24:59.236Z,9.50
2018-01-26T11:27:27.489Z,9.50
2018-01-26T11:29:56.563Z,9.60
2018-01-26T11:32:24.809Z,9.60
2018-01-26T11:34:53.070Z,9.70
2018-01-26T11:37:21.300Z,9.70
2018-01-26T11:39:49.594Z,9.80
2018-01-26T11:42:17.861Z,9.60
2018-01-26T11:44:46.121Z,9.70
2018-01-26T11:47:14.376Z,9.80
2018-01-26T11:49:42.643Z,10.00
2018-01-26T11:52:10.921Z,10.20
2018-01-26T11:54:39.145Z,10.20
2018-01-26T11:57:08.158Z,10.20
2018-01-26T11:59:36.455Z,10.20
2018-01-26T12:02:05.173Z,10.10
2018-01-26T12:04:33.409Z,10.00
2018-01-26T12:07:01.725Z,10.00
2018-01-26T12:09:30.030Z,10.20
2018-01-26T12:11:58.264Z,10.30
2018-01-26T12:14:26.493Z,10.20
2018-01-26T12:16:55.531Z,10.50
2018-01-26T12:19:24.084Z,10.50
2018-01-26T12:21:53.160Z,10.50
2018-01-26T12:24:22.185Z,10.60
2018-01-26T12:26:50.463Z,10.60
2018-01-26T12:29:19.497Z,10.50
2018-01-26T12:31:47.791Z,10.50
2018-01-26T12:34:16.068Z,10.60
2018-01-26T12:36:44.344Z,10.60
2018-01-26T12:39:12.614Z,10.70
2018-01-26T12:41:40.908Z,10.70
2018-01-26T12:44:09.144Z,10.60
2018-01-26T12:46:37.480Z,10.60
2018-01-26T12:49:06.497Z,10.70
2018-01-26T12:51:34.792Z,10.70
2018-01-26T12:54:03.053Z,10.60
2018-01-26T12:56:32.091Z,10.50
2018-01-26T12:59:00.813Z,10.50
2018-01-26T13:01:29.055Z,10.40
2018-01-26T13:03:57.352Z,10.40
2018-01-26T13:06:25.914Z,10.40
2018-01-26T13:08:54.215Z,10.30
2018-01-26T13:11:22.458Z,10.30
2018-01-26T13:13:50.799Z,10.20
2018-01-26T13:16:19.115Z,10.20
2018-01-26T13:18:47.434Z,9.90
2018-01-26T13:21:15.661Z,10.00
2018-01-26T13:23:44.064Z,9.90
2018-01-26T13:26:12.334Z,10.00
2018-01-26T13:28:40.646Z,10.10
2018-01-26T13:31:08.930Z,10.10
2018-01-26T13:33:37.196Z,10.10
2018-01-26T13:36:05.516Z,10.00
2018-01-26T13:38:33.814Z,10.00
2018-01-26T13:41:02.109Z,10.00
2018-01-26T13:43:30.465Z,10.00
2018-01-26T13:45:58.735Z,10.00
2018-01-26T13:48:27.037Z,10.10
2018-01-26T13:50:55.393Z,10.10
2018-01-26T13:53:23.673Z,10.00
2018-01-26T13:55:51.962Z,10.00
2018-01-26T13:58:20.281Z,9.90
2018-01-26T14:07:35.572Z,9.90
2018-01-26T14:10:03.844Z,9.80
2018-01-26T14:12:32.156Z,9.80
2018-01-26T14:15:01.311Z,9.80
2018-01-26T14:17:29.565Z,9.70
2018-01-26T14:19:58.093Z,9.80
2018-01-26T14:22:26.359Z,9.70
2018-01-26T14:24:54.602Z,9.60
2018-01-26T14:27:23.622Z,9.40
2018-01-26T14:29:51.895Z,9.40
2018-01-26T14:32:20.141Z,9.20
2018-01-26T14:34:49.179Z,9.40
2018-01-26T14:37:17.455Z,9.40
2018-01-26T14:39:45.697Z,9.50
2018-01-26T14:42:13.977Z,9.50
2018-01-26T14:44:43.034Z,9.50
2018-01-26T14:47:11.345Z,9.50
2018-01-26T14:49:39.629Z,9.50
2018-01-26T14:52:07.885Z,9.50
2018-01-26T14:54:36.175Z,9.40
2018-01-26T14:57:04.406Z,9.30
2018-01-26T14:59:32.689Z,9.30
2018-01-26T15:02:00.988Z,9.40
2018-01-26T15:04:29.275Z,9.40
2018-01-26T15:06:57.515Z,9.40
2018-01-26T15:09:25.759Z,9.40
2018-01-26T15:11:55.635Z,9.20
2018-01-26T15:14:24.639Z,9.00
2018-01-26T15:16:53.930Z,8.90
2018-01-26T15:19:22.185Z,8.90
2018-01-26T15:21:50.457Z,8.80
2018-01-26T15:24:18.744Z,8.80
2018-01-26T15:26:47.047Z,8.80
2018-01-26T15:29:15.282Z,8.80
2018-01-26T15:31:43.661Z,8.90
2018-01-26T15:34:11.924Z,9.00
2018-01-26T15:36:40.184Z,8.90
2018-01-26T15:39:08.468Z,8.90
2018-01-26T15:41:36.778Z,8.80
2018-01-26T15:44:05.036Z,8.80
2018-01-26T15:46:33.305Z,8.70
2018-01-26T15:49:01.554Z,8.60
2018-01-26T15:51:29.818Z,8.50
2018-01-26T15:53:58.852Z,8.50
2018-01-26T15:56:27.093Z,8.40
2018-01-26T15:58:55.365Z,8.50
2018-01-26T16:01:24.396Z,8.50
2018-01-26T16:03:52.699Z,8.50
2018-01-26T16:06:20.964Z,8.50
2018-01-26T16:08:49.249Z,8.40
2018-01-26T16:11:17.530Z,8.30
2018-01-26T16:13:45.802Z,8.30
2018-01-26T16:16:14.147Z,8.30
2018-01-26T16:18:42.382Z,8.30
2018-01-26T16:21:12.169Z,8.20
2018-01-26T16:23:40.625Z,8.30
2018-01-26T16:26:09.649Z,8.20
2018-01-26T16:28:37.974Z,8.10
2018-01-26T16:31:06.233Z,8.20
2018-01-26T16:33:34.498Z,8.10
2018-01-26T16:36:02.817Z,8.10
2018-01-26T16:38:32.593Z,8.10
2018-01-26T16:41:00.869Z,8.10
2018-01-26T16:43:29.128Z,8.10
2018-01-26T16:45:57.391Z,8.10
2018-01-26T16:48:25.687Z,8.00
2018-01-26T16:50:54.003Z,7.80
2018-01-26T16:53:22.325Z,7.60
2018-01-26T16:55:51.358Z,7.50
2018-01-26T16:58:19.683Z,7.50
2018-01-26T17:00:48.702Z,7.50
2018-01-26T17:03:16.976Z,7.50
2018-01-26T17:05:46.010Z,7.50
2018-01-26T17:08:14.264Z,7.50
2018-01-26T17:10:42.596Z,7.60
2018-01-26T17:13:10.875Z,7.50
2018-01-26T17:15:40.174Z,7.20
2018-01-26T17:18:08.408Z,7.20
2018-01-26T17:20:36.702Z,7.10
2018-01-26T17:23:05.506Z,7.00
2018-01-26T17:25:33.809Z,6.90
2018-01-26T17:28:02.832Z,6.80
2018-01-26T17:30:31.085Z,6.80
2018-01-26T17:32:59.419Z,6.90
2018-01-26T17:35:28.492Z,6.90
2018-01-26T17:37:56.906Z,7.10
2018-01-26T17:40:26.027Z,7.30
2018-01-26T17:42:54.320Z,7.30
2018-01-26T17:45:23.354Z,7.40
2018-01-26T17:47:51.583Z,7.40
2018-01-26T17:50:20.641Z,7.30
2018-01-26T17:52:48.969Z,7.30
2018-01-26T17:55:17.349Z,7.30
2018-01-26T17:57:46.374Z,7.30
2018-01-26T18:00:14.652Z,7.30
2018-01-26T18:02:43.755Z,7.40
2018-01-26T18:05:12.047Z,7.40
2018-01-26T18:07:40.309Z,7.40
2018-01-26T18:10:08.600Z,7.50
2018-01-26T18:12:37.278Z,7.40
2018-01-26T18:15:05.587Z,7.40
2018-01-26T18:17:33.961Z,7.20
2018-01-26T18:20:02.555Z,7.00
2018-01-26T18:22:30.803Z,6.90
2018-01-26T18:24:59.061Z,6.80
2018-01-26T18:27:30.860Z,6.80
2018-01-26T18:29:59.930Z,6.70
2018-01-26T18:32:28.203Z,6.70
2018-01-26T18:34:56.513Z,6.70
2018-01-26T18:37:24.754Z,6.80
2018-01-26T18:39:53.092Z,6.90
2018-01-26T18:42:22.955Z,7.10
2018-01-26T18:44:51.251Z,7.00
2018-01-26T18:47:19.537Z,7.10
2018-01-26T18:49:49.006Z,7.10
2018-01-26T18:52:17.252Z,7.10
2018-01-26T18:54:46.297Z,7.20
2018-01-26T18:57:15.365Z,7.30
2018-01-26T18:59:43.793Z,7.30
2018-01-26T19:02:12.063Z,7.30
2018-01-26T19:04:40.323Z,7.20
2018-01-26T19:07:08.595Z,7.10
2018-01-26T19:09:36.910Z,6.90
2018-01-26T19:12:05.184Z,6.80
2018-01-26T19:14:34.966Z,6.70
2018-01-26T19:17:03.275Z,6.70
2018-01-26T19:19:31.541Z,6.70
2018-01-26T19:21:59.765Z,6.70
2018-01-26T19:24:28.082Z,6.70
2018-01-26T19:26:56.403Z,6.90
2018-01-26T19:29:26.184Z,6.80
2018-01-26T19:31:54.620Z,6.80
2018-01-26T19:34:23.661Z,6.70
2018-01-26T19:36:53.037Z,6.70
2018-01-26T19:39:21.361Z,6.70
2018-01-26T19:41:49.615Z,6.60
2018-01-26T19:44:18.341Z,6.50
2018-01-26T19:46:46.611Z,6.50
2018-01-26T19:49:14.922Z,6.50
2018-01-26T19:51:44.050Z,6.70
2018-01-26T19:54:13.229Z,6.60
2018-01-26T19:56:41.500Z,6.60
2018-01-26T19:59:10.149Z,6.60
2018-01-26T20:01:38.535Z,6.60
2018-01-26T20:04:06.801Z,6.60
2018-01-26T20:06:53.551Z,6.50
2018-01-26T20:09:25.985Z,6.50
2018-01-26T20:12:00.639Z,6.60
2018-01-26T20:14:29.038Z,6.60
2018-01-26T20:16:57.285Z,6.70
2018-01-26T20:19:26.344Z,6.60
2018-01-26T20:21:54.639Z,6.60
2018-01-26T20:24:24.861Z,6.50
2018-01-26T20:26:53.288Z,6.50
2018-01-26T20:29:21.580Z,6.40
2018-01-26T20:31:49.899Z,6.30
2018-01-26T20:34:18.226Z,6.30
2018-01-26T20:36:47.079Z,6.40
2018-01-26T20:39:15.440Z,6.50
2018-01-26T20:41:44.543Z,6.50
2018-01-26T20:44:13.606Z,6.30
2018-01-26T20:46:42.008Z,6.30
2018-01-26T20:49:10.307Z,6.30
2018-01-26T20:51:38.620Z,6.30
2018-01-26T20:54:07.269Z,6.40
2018-01-26T20:56:36.357Z,6.30
2018-01-26T20:59:05.883Z,6.20
2018-01-26T21:01:34.869Z,6.20
2018-01-26T21:04:04.383Z,6.10
2018-01-26T21:06:33.171Z,6.10
2018-01-26T21:09:02.251Z,6.20
2018-01-26T21:11:30.848Z,6.20
2018-01-26T21:14:00.243Z,6.30
2018-01-26T21:16:29.333Z,6.40
2018-01-26T21:18:58.508Z,6.40
2018-01-26T21:21:26.779Z,6.50
2018-01-26T21:23:55.053Z,6.60
2018-01-26T21:26:23.308Z,6.60
2018-01-26T21:28:51.546Z,6.50
2018-01-26T21:31:20.610Z,6.40
2018-01-26T21:33:48.885Z,6.40
2018-01-26T21:36:17.155Z,6.30
2018-01-26T21:38:45.433Z,6.20
2018-01-26T21:41:14.419Z,6.10
2018-01-26T21:43:42.687Z,6.20
2018-01-26T21:46:10.959Z,6.10
2018-01-26T21:48:39.247Z,6.10
2018-01-26T21:51:07.531Z,6.10
2018-01-26T21:53:35.857Z,6.10
2018-01-26T21:56:04.099Z,6.10
2018-01-26T21:58:32.376Z,6.10
2018-01-26T22:01:00.689Z,6.20
2018-01-26T22:03:29.705Z,6.10
2018-01-26T22:06:04.471Z,6.10
2018-01-26T22:08:32.742Z,6.10
2018-01-26T22:11:01.017Z,6.00
2018-01-26T22:13:29.307Z,6.00
2018-01-26T22:15:57.638Z,6.00
2018-01-26T22:18:26.650Z,5.90
2018-01-26T22:20:54.973Z,5.90
2018-01-26T22:23:23.205Z,5.90
2018-01-26T22:25:52.284Z,6.00
2018-01-26T22:28:20.526Z,6.00
2018-01-26T22:30:48.801Z,5.90
2018-01-26T22:33:17.030Z,5.80
2018-01-26T22:35:46.078Z,5.70
2018-01-26T22:38:14.362Z,5.70
2018-01-26T22:40:42.608Z,5.70
2018-01-26T22:43:10.892Z,5.80
2018-01-26T22:45:39.161Z,5.80
2018-01-26T22:48:07.451Z,5.80
2018-01-26T22:50:35.707Z,5.80
2018-01-26T22:53:04.742Z,5.70
2018-01-26T22:55:32.987Z,5.70
2018-01-26T22:58:01.237Z,5.60
2018-01-26T23:00:29.550Z,5.50
2018-01-26T23:02:57.837Z,5.40
2018-01-26T23:05:26.175Z,5.40
2018-01-26T23:07:54.450Z,5.50
2018-01-26T23:10:23.495Z,5.60
2018-01-26T23:12:51.739Z,5.60
2018-01-26T23:15:20.047Z,5.70
2018-01-26T23:17:48.340Z,5.70
2018-01-26T23:20:16.655Z,5.70
2018-01-26T23:22:44.945Z,5.60
2018-01-26T23:25:13.205Z,5.60
2018-01-26T23:27:42.254Z,5.60
2018-01-26T23:30:10.496Z,5.60
2018-01-26T23:32:38.772Z,5.60
2018-01-26T23:35:07.776Z,5.60
2018-01-26T23:37:36.081Z,5.60
2018-01-26T23:40:05.027Z,5.60
2018-01-26T23:42:34.057Z,5.70
2018-01-26T23:45:02.335Z,5.70
2018-01-26T23:47:30.565Z,5.70
2018-01-26T23:49:58.825Z,5.80
2018-01-26T23:52:27.053Z,5.80
2018-01-26T23:54:55.308Z,5.80
2018-01-26T23:57:23.557Z,5.90
2018-01-26T23:59:53.051Z,6.00
